Time;durP1;ratioP1;P1;durP2;ratioP2;P2;SDS_P1;SDS_P2;PMS_P1;PMS_P2;Temp;Humidity;BMP_temperature;BMP_pressure;BME280_temperature;BME280_humidity;BME280_pressure;Samples;Min_cycle;Max_cycle;Signal;HPM_P1;HPM_P2
2024/01/11 00:03:40;;;;;;;28.07;7.77;;;;;;;;;;10592916;27;20122;-74
2024/01/11 00:08:43;;;;;;;5.17;3.07;;;;;;;;;;10594002;27;20548;-75
2024/01/11 00:13:46;;;;;;;17.63;5.00;;;;;;;;;;10583637;27;20059;-75
2024/01/11 00:18:49;;;;;;;9.13;3.28;;;;;;;;;;10582937;27;20584;-74
2024/01/11 00:23:52;;;;;;;14.70;6.40;;;;;;;;;;10570191;27;20036;-74
2024/01/11 00:28:56;;;;;;;25.53;7.13;;;;;;;;;;10589866;27;20047;-74
2024/01/11 00:33:58;;;;;;;3.95;1.25;;;;;;;;;;10586765;27;20138;-74
2024/01/11 00:39:01;;;;;;;41.67;10.63;;;;;;;;;;10590105;27;20031;-75
2024/01/11 00:44:05;;;;;;;20.13;6.50;;;;;;;;;;10572642;27;20133;-73
2024/01/11 00:49:08;;;;;;;;;;;;;;;;;;10585378;27;20100;-74
2024/01/11 00:54:10;;;;;;;24.87;6.30;;;;;;;;;;10589889;27;19926;-75
2024/01/11 00:59:14;;;;;;;22.83;8.33;;;;;;;;;;10593983;27;20560;-75
2024/01/11 01:04:17;;;;;;;;;;;;;;;;;;10596991;27;20047;-74
2024/01/11 01:09:19;;;;;;;23.77;6.30;;;;;;;;;;10587326;27;20018;-75
2024/01/11 01:14:23;;;;;;;26.43;7.07;;;;;;;;;;10595736;27;20100;-74
2024/01/11 01:19:26;;;;;;;36.73;9.43;;;;;;;;;;10584081;27;20043;-74
2024/01/11 01:24:29;;;;;;;12.00;3.93;;;;;;;;;;10582880;27;20497;-75
2024/01/11 01:29:33;;;;;;;21.07;6.17;;;;;;;;;;10594796;27;20039;-74
2024/01/11 01:34:36;;;;;;;10.45;2.60;;;;;;;;;;10582342;27;20130;-75
2024/01/11 01:39:38;;;;;;;17.60;5.93;;;;;;;;;;10578247;27;20471;-75
2024/01/11 01:44:43;;;;;;;28.13;8.27;;;;;;;;;;10588303;27;20054;-74
2024/01/11 01:49:45;;;;;;;;;;;;;;;;;;10586945;27;20062;-75
2024/01/11 01:54:49;;;;;;;1.30;0.60;;;;;;;;;;10589656;27;19919;-75
2024/01/11 01:59:53;;;;;;;20.27;5.90;;;;;;;;;;10584595;27;20477;-79
2024/01/11 02:04:56;;;;;;;14.20;4.70;;;;;;;;;;10582087;27;20134;-74
2024/01/11 02:09:59;;;;;;;11.27;2.53;;;;;;;;;;10575334;27;20074;-75
2024/01/11 02:15:04;;;;;;;25.40;7.37;;;;;;;;;;10586011;27;20558;-75
2024/01/11 02:20:07;;;;;;;24.17;5.57;;;;;;;;;;10587117;27;20176;-74
2024/01/11 02:25:11;;;;;;;16.33;6.38;;;;;;;;;;10593647;27;20139;-75
2024/01/11 02:30:14;;;;;;;35.05;6.82;;;;;;;;;;10586606;27;20161;-74
2024/01/11 02:35:17;;;;;;;30.27;9.83;;;;;;;;;;10586864;27;20136;-75
2024/01/11 02:40:22;;;;;;;18.60;6.47;;;;;;;;;;10581720;27;20108;-75
2024/01/11 02:45:25;;;;;;;19.13;6.57;;;;;;;;;;10587741;27;20118;-75
2024/01/11 02:50:28;;;;;;;15.40;4.40;;;;;;;;;;10588292;27;20124;-76
2024/01/11 02:55:32;;;;;;;14.60;4.23;;;;;;;;;;10594009;27;20047;-75
2024/01/11 03:00:34;;;;;;;26.10;7.13;;;;;;;;;;10594855;27;20035;-75
2024/01/11 03:05:37;;;;;;;23.40;7.97;;;;;;;;;;10594974;27;20043;-75
2024/01/11 03:10:41;;;;;;;12.17;3.67;;;;;;;;;;10593231;27;20040;-75
2024/01/11 03:15:44;;;;;;;8.30;3.88;;;;;;;;;;10594480;27;20107;-75
2024/01/11 03:20:47;;;;;;;12.70;5.93;;;;;;;;;;10597698;27;20073;-74
2024/01/11 03:25:51;;;;;;;28.27;7.43;;;;;;;;;;10590020;27;20122;-74
2024/01/11 03:30:54;;;;;;;21.80;4.15;;;;;;;;;;10591551;27;20123;-75
2024/01/11 03:35:56;;;;;;;11.60;3.43;;;;;;;;;;10601406;27;20464;-73
2024/01/11 03:41:00;;;;;;;16.73;5.07;;;;;;;;;;10600029;27;20090;-75
2024/01/11 03:46:03;;;;;;;16.88;4.90;;;;;;;;;;10572358;27;20042;-74
2024/01/11 03:51:06;;;;;;;31.93;8.53;;;;;;;;;;10592957;27;20047;-74
2024/01/11 03:56:11;;;;;;;16.87;4.50;;;;;;;;;;10598539;27;20561;-75
2024/01/11 04:01:13;;;;;;;;;;;;;;;;;;10593625;27;20138;-75
2024/01/11 04:06:20;;;;;;;8.13;3.07;;;;;;;;;;10597250;27;19959;-75
2024/01/11 04:11:27;;;;;;;10.67;4.37;;;;;;;;;;10592816;27;20046;-75
2024/01/11 04:16:30;;;;;;;3.13;1.00;;;;;;;;;;10601739;27;20039;-76
2024/01/11 04:21:33;;;;;;;24.07;7.43;;;;;;;;;;10588414;27;20092;-74
2024/01/11 04:26:36;;;;;;;28.00;8.90;;;;;;;;;;10597687;27;20174;-74
2024/01/11 04:31:39;;;;;;;32.30;9.90;;;;;;;;;;10588712;27;20041;-75
2024/01/11 04:36:42;;;;;;;24.70;7.47;;;;;;;;;;10598958;27;20496;-75
2024/01/11 04:41:46;;;;;;;30.07;9.23;;;;;;;;;;10590048;27;20074;-75
2024/01/11 04:46:49;;;;;;;23.75;6.88;;;;;;;;;;10583194;27;20048;-75
2024/01/11 04:51:51;;;;;;;16.30;6.57;;;;;;;;;;10590732;27;20572;-74
2024/01/11 04:56:55;;;;;;;16.67;4.60;;;;;;;;;;10583897;27;20542;-75
2024/01/11 05:01:58;;;;;;;14.67;4.70;;;;;;;;;;10586812;27;20152;-75
2024/01/11 05:07:01;;;;;;;28.63;8.80;;;;;;;;;;10578149;27;20040;-75
2024/01/11 05:12:06;;;;;;;36.92;9.65;;;;;;;;;;10594941;27;20094;-75
2024/01/11 05:17:08;;;;;;;30.63;9.17;;;;;;;;;;10581705;27;20117;-74
2024/01/11 05:22:11;;;;;;;22.10;6.70;;;;;;;;;;10596012;27;20040;-75
2024/01/11 05:27:15;;;;;;;19.50;5.77;;;;;;;;;;10592133;27;20039;-75
2024/01/11 05:32:18;;;;;;;10.77;3.45;;;;;;;;;;10593794;27;20097;-74
2024/01/11 05:37:21;;;;;;;22.80;5.43;;;;;;;;;;10589553;27;20034;-74
2024/01/11 05:42:25;;;;;;;20.67;7.17;;;;;;;;;;10595333;27;20138;-74
2024/01/11 05:47:28;;;;;;;10.40;3.17;;;;;;;;;;10585894;27;20526;-75
2024/01/11 05:52:31;;;;;;;5.57;2.03;;;;;;;;;;10587463;27;20044;-75
2024/01/11 05:57:35;;;;;;;14.77;6.18;;;;;;;;;;10592378;27;20408;-75
2024/01/11 06:02:38;;;;;;;15.10;4.15;;;;;;;;;;10580124;27;20575;-75
2024/01/11 06:07:41;;;;;;;28.63;9.50;;;;;;;;;;10583638;27;20122;-74
2024/01/11 06:12:45;;;;;;;34.73;8.60;;;;;;;;;;10590769;27;20042;-74
2024/01/11 06:17:48;;;;;;;23.90;8.37;;;;;;;;;;10580952;27;20047;-75
2024/01/11 06:22:51;;;;;;;28.13;8.67;;;;;;;;;;10578637;27;20191;-75
2024/01/11 06:27:55;;;;;;;21.73;6.20;;;;;;;;;;10593581;27;20122;-75
2024/01/11 06:32:58;;;;;;;24.55;7.07;;;;;;;;;;10585449;27;20400;-76
2024/01/11 06:38:01;;;;;;;10.23;3.40;;;;;;;;;;10586952;27;20435;-74
2024/01/11 06:43:05;;;;;;;20.57;4.73;;;;;;;;;;10588014;28;20083;-74
2024/01/11 06:48:07;;;;;;;3.47;1.60;;;;;;;;;;10591178;27;20051;-74
2024/01/11 06:53:10;;;;;;;15.77;5.60;;;;;;;;;;10588420;27;20050;-76
2024/01/11 06:58:16;;;;;;;28.47;9.40;;;;;;;;;;10588902;27;20400;-72
2024/01/11 07:03:19;;;;;;;15.77;5.73;;;;;;;;;;10587250;27;20058;-74
2024/01/11 07:08:22;;;;;;;16.33;4.67;;;;;;;;;;10590876;27;20537;-74
2024/01/11 07:13:26;;;;;;;33.97;9.27;;;;;;;;;;10586553;27;20168;-73
2024/01/11 07:18:28;;;;;;;8.95;3.63;;;;;;;;;;10585721;27;20430;-74
2024/01/11 07:23:31;;;;;;;18.40;6.33;;;;;;;;;;10590052;27;20043;-74
2024/01/11 07:28:36;;;;;;;19.17;6.00;;;;;;;;;;10586861;28;20047;-73
2024/01/11 07:33:39;;;;;;;14.30;5.57;;;;;;;;;;10591080;27;20091;-74
2024/01/11 07:38:42;;;;;;;21.03;6.17;;;;;;;;;;10590581;27;20106;-73
2024/01/11 07:43:46;;;;;;;7.67;3.17;;;;;;;;;;10570743;27;20042;-72
2024/01/11 07:48:56;;;;;;;15.40;5.83;;;;;;;;;;10595467;27;20038;-73
2024/01/11 07:53:59;;;;;;;22.40;7.10;;;;;;;;;;10593334;27;20035;-73
2024/01/11 07:59:03;;;;;;;8.73;5.20;;;;;;;;;;10596574;27;20051;-75
2024/01/11 08:04:05;;;;;;;25.42;6.70;;;;;;;;;;10597051;27;20053;-74
2024/01/11 08:09:10;;;;;;;14.83;5.03;;;;;;;;;;10590020;27;20185;-75
2024/01/11 08:14:15;;;;;;;20.43;6.33;;;;;;;;;;10590364;27;20050;-73
2024/01/11 08:19:18;;;;;;;20.63;6.47;;;;;;;;;;10588853;27;20031;-73
2024/01/11 08:24:21;;;;;;;7.10;2.30;;;;;;;;;;10598565;27;20047;-73
2024/01/11 08:29:24;;;;;;;25.77;8.50;;;;;;;;;;10588020;27;20058;-75
2024/01/11 08:34:27;;;;;;;25.42;8.43;;;;;;;;;;10592910;27;20047;-73
2024/01/11 08:39:31;;;;;;;28.67;8.50;;;;;;;;;;10593325;27;20800;-74
2024/01/11 08:44:35;;;;;;;31.47;7.77;;;;;;;;;;10598808;27;20034;-73
2024/01/11 08:49:39;;;;;;;25.03;7.97;;;;;;;;;;10601114;27;20325;-72
2024/01/11 08:54:42;;;;;;;26.13;9.77;;;;;;;;;;10591162;27;20121;-73
2024/01/11 08:59:46;;;;;;;23.43;8.37;;;;;;;;;;10592831;27;20488;-74
2024/01/11 09:04:48;;;;;;;33.22;11.02;;;;;;;;;;10591086;27;20121;-75
2024/01/11 09:09:51;;;;;;;39.93;11.77;;;;;;;;;;10586899;27;20516;-74
2024/01/11 09:15:00;;;;;;;46.17;14.90;;;;;;;;;;10592968;27;20100;-73
2024/01/11 09:20:03;;;;;;;34.88;10.38;;;;;;;;;;10596624;27;20537;-74
2024/01/11 09:25:07;;;;;;;49.17;13.03;;;;;;;;;;10596603;27;20050;-74
2024/01/11 09:30:11;;;;;;;46.97;13.75;;;;;;;;;;10594284;27;20133;-73
2024/01/11 09:35:14;;;;;;;44.57;13.77;;;;;;;;;;10598179;27;20113;-74
2024/01/11 09:40:18;;;;;;;48.20;11.33;;;;;;;;;;10591562;27;20047;-74
2024/01/11 09:45:22;;;;;;;52.13;14.53;;;;;;;;;;10591323;27;20126;-73
2024/01/11 09:50:25;;;;;;;51.20;15.20;;;;;;;;;;10591117;27;20123;-73
2024/01/11 09:55:28;;;;;;;57.17;15.23;;;;;;;;;;10597666;27;20123;-73
2024/01/11 10:00:32;;;;;;;35.23;11.13;;;;;;;;;;10595361;27;20133;-73
2024/01/11 10:05:36;;;;;;;46.33;13.50;;;;;;;;;;10591167;27;20594;-72
2024/01/11 10:10:39;;;;;;;54.53;14.77;;;;;;;;;;10589832;27;20412;-74
2024/01/11 10:15:44;;;;;;;33.88;11.68;;;;;;;;;;10589442;27;20050;-73
2024/01/11 10:20:48;;;;;;;41.90;12.80;;;;;;;;;;10584513;27;20039;-74
2024/01/11 10:25:51;;;;;;;45.17;14.50;;;;;;;;;;10591451;27;20134;-74
2024/01/11 10:30:55;;;;;;;37.27;11.10;;;;;;;;;;10594171;27;20031;-74
2024/01/11 10:35:58;;;;;;;;;;;;;;;;;;10591634;27;20369;-72
2024/01/11 10:41:01;;;;;;;44.37;12.90;;;;;;;;;;10587876;27;20456;-74
2024/01/11 10:46:07;;;;;;;38.37;10.80;;;;;;;;;;10594496;27;20509;-73
2024/01/11 10:51:13;;;;;;;40.13;12.90;;;;;;;;;;10588026;27;20504;-73
2024/01/11 10:56:16;;;;;;;44.87;13.67;;;;;;;;;;10588396;27;20177;-72
2024/01/11 11:01:21;;;;;;;49.67;14.55;;;;;;;;;;10582326;27;20136;-73
2024/01/11 11:06:24;;;;;;;10.13;3.43;;;;;;;;;;10595251;27;20036;-74
2024/01/11 11:11:28;;;;;;;10.37;3.17;;;;;;;;;;10599304;27;20027;-73
2024/01/11 11:16:31;;;;;;;;;;;;;;;;;;10591804;27;20048;-72
2024/01/11 11:21:42;;;;;;;42.10;13.90;;;;;;;;;;10594407;27;20026;-73
2024/01/11 11:26:44;;;;;;;52.47;15.60;;;;;;;;;;10588817;27;20160;-72
2024/01/11 11:31:53;;;;;;;42.70;13.07;;;;;;;;;;10595315;27;20043;-74
2024/01/11 11:36:57;;;;;;;36.90;11.43;;;;;;;;;;10594940;27;20050;-72
2024/01/11 11:42:01;;;;;;;46.85;14.95;;;;;;;;;;10592615;27;20062;-73
2024/01/11 11:47:04;;;;;;;;;;;;;;;;;;10591453;27;20171;-74
2024/01/11 11:52:14;;;;;;;47.10;13.97;;;;;;;;;;10595073;27;19919;-73
2024/01/11 11:57:17;;;;;;;44.80;13.77;;;;;;;;;;10584229;27;20492;-73
2024/01/11 12:02:20;;;;;;;56.77;15.67;;;;;;;;;;10597627;27;20230;-73
2024/01/11 12:07:25;;;;;;;50.07;13.13;;;;;;;;;;10599943;27;20454;-74
2024/01/11 12:12:28;;;;;;;45.95;12.48;;;;;;;;;;10598020;27;20730;-73
2024/01/11 12:17:33;;;;;;;45.92;12.90;;;;;;;;;;10596336;27;20055;-75
2024/01/11 12:22:38;;;;;;;35.53;10.20;;;;;;;;;;10592880;27;20047;-74
2024/01/11 12:27:40;;;;;;;34.97;8.70;;;;;;;;;;10591568;27;20699;-73
2024/01/11 12:32:48;;;;;;;45.00;11.50;;;;;;;;;;10587195;27;20489;-73
2024/01/11 12:37:54;;;;;;;49.30;14.60;;;;;;;;;;10592544;27;20039;-73
2024/01/11 12:43:00;;;;;;;52.30;14.17;;;;;;;;;;10593267;27;20043;-74
2024/01/11 12:48:03;;;;;;;36.22;11.55;;;;;;;;;;10591143;27;20130;-73
2024/01/11 12:53:17;;;;;;;45.88;12.82;;;;;;;;;;10595083;27;20497;-74
2024/01/11 12:58:21;;;;;;;54.28;14.98;;;;;;;;;;10588180;27;20043;-73
2024/01/11 13:03:27;;;;;;;47.35;12.95;;;;;;;;;;10601736;27;20196;-74
2024/01/11 13:08:31;;;;;;;39.80;12.83;;;;;;;;;;10594987;27;20127;-72
2024/01/11 13:13:35;;;;;;;50.33;15.70;;;;;;;;;;10597151;27;20040;-73
2024/01/11 13:18:38;;;;;;;48.58;14.38;;;;;;;;;;10593745;27;20054;-73
2024/01/11 13:23:43;;;;;;;50.60;14.70;;;;;;;;;;10595535;27;20042;-73
2024/01/11 13:28:46;;;;;;;46.73;14.87;;;;;;;;;;10593449;27;20634;-73
2024/01/11 13:33:49;;;;;;;56.90;15.13;;;;;;;;;;10593358;27;20138;-73
2024/01/11 13:38:53;;;;;;;56.87;15.57;;;;;;;;;;10574653;27;20035;-73
2024/01/11 13:43:56;;;;;;;49.03;14.43;;;;;;;;;;10595842;27;20035;-73
2024/01/11 13:48:58;;;;;;;45.83;13.70;;;;;;;;;;10587103;27;20146;-73
2024/01/11 13:54:03;;;;;;;44.83;14.40;;;;;;;;;;10594135;27;20499;-73
2024/01/11 13:59:05;;;;;;;;;;;;;;;;;;10571214;27;20038;-73
2024/01/11 14:04:08;;;;;;;43.17;14.60;;;;;;;;;;10584579;27;19974;-74
2024/01/11 14:09:12;;;;;;;48.40;12.97;;;;;;;;;;10592083;27;20051;-75
2024/01/11 14:14:18;;;;;;;47.90;15.53;;;;;;;;;;10593881;27;20069;-74
2024/01/11 14:19:22;;;;;;;58.20;16.60;;;;;;;;;;10589766;27;20170;-72
2024/01/11 14:24:26;;;;;;;56.42;16.15;;;;;;;;;;10597466;27;20404;-75
2024/01/11 14:29:39;;;;;;;64.73;18.70;;;;;;;;;;10593744;27;20035;-75
2024/01/11 14:34:42;;;;;;;71.87;18.00;;;;;;;;;;10568115;27;20054;-75
2024/01/11 14:39:46;;;;;;;53.37;16.33;;;;;;;;;;10593110;27;20048;-74
2024/01/11 14:44:49;;;;;;;58.28;16.75;;;;;;;;;;10594891;27;20146;-73
2024/01/11 14:49:51;;;;;;;59.73;16.60;;;;;;;;;;10593175;27;20035;-75
2024/01/11 14:54:56;;;;;;;59.40;16.27;;;;;;;;;;10599251;27;20726;-74
2024/01/11 14:59:59;;;;;;;50.78;15.77;;;;;;;;;;10602103;27;20088;-74
2024/01/11 15:05:02;;;;;;;46.33;13.43;;;;;;;;;;10595668;27;20473;-74
2024/01/11 15:10:06;;;;;;;54.13;16.43;;;;;;;;;;10600402;27;20054;-75
2024/01/11 15:15:09;;;;;;;62.57;17.07;;;;;;;;;;10597686;27;20096;-73
2024/01/11 15:20:13;;;;;;;51.87;15.40;;;;;;;;;;10597589;27;20098;-74
2024/01/11 15:25:18;;;;;;;62.20;17.55;;;;;;;;;;10597462;27;20035;-72
2024/01/11 15:30:21;;;;;;;58.13;15.30;;;;;;;;;;10594522;27;20047;-74
2024/01/11 15:35:24;;;;;;;55.10;16.73;;;;;;;;;;10591856;27;20054;-74
2024/01/11 15:40:29;;;;;;;52.03;17.23;;;;;;;;;;10573222;27;20337;-75
2024/01/11 15:45:31;;;;;;;55.83;15.43;;;;;;;;;;10590901;27;20134;-74
2024/01/11 15:50:37;;;;;;;57.30;15.87;;;;;;;;;;10598098;27;20031;-75
2024/01/11 15:55:42;;;;;;;52.83;15.87;;;;;;;;;;10592926;27;20477;-73
2024/01/11 16:00:44;;;;;;;54.03;15.80;;;;;;;;;;10591657;27;20044;-74
2024/01/11 16:05:47;;;;;;;59.10;16.60;;;;;;;;;;10600341;27;20092;-74
2024/01/11 16:10:51;;;;;;;56.27;15.57;;;;;;;;;;10595448;27;20055;-74
2024/01/11 16:15:56;;;;;;;56.67;15.25;;;;;;;;;;10591411;27;20110;-72
2024/01/11 16:20:59;;;;;;;58.53;18.07;;;;;;;;;;10602243;27;20062;-73
2024/01/11 16:26:03;;;;;;;47.40;14.87;;;;;;;;;;10588445;27;20111;-73
2024/01/11 16:31:06;;;;;;;52.90;15.93;;;;;;;;;;10599210;27;20061;-74
2024/01/11 16:36:09;;;;;;;60.30;17.47;;;;;;;;;;10594647;27;20118;-72
2024/01/11 16:41:14;;;;;;;8.52;4.60;;;;;;;;;;10592137;27;20044;-73
2024/01/11 16:46:18;;;;;;;21.00;7.53;;;;;;;;;;10582344;27;20039;-73
2024/01/11 16:51:24;;;;;;;57.00;17.40;;;;;;;;;;10600648;27;20046;-72
2024/01/11 16:56:28;;;;;;;41.00;12.27;;;;;;;;;;10597918;27;20039;-73
2024/01/11 17:01:31;;;;;;;;;;;;;;;;;;10590998;27;20042;-73
2024/01/11 17:06:34;;;;;;;17.13;5.23;;;;;;;;;;10589758;27;19920;-74
2024/01/11 17:11:40;;;;;;;59.45;16.17;;;;;;;;;;10584451;27;20183;-73
2024/01/11 17:16:43;;;;;;;56.90;16.73;;;;;;;;;;10585715;27;20058;-74
2024/01/11 17:21:46;;;;;;;65.87;17.20;;;;;;;;;;10588088;27;20050;-73
2024/01/11 17:26:51;;;;;;;59.23;17.50;;;;;;;;;;10569786;27;20138;-73
2024/01/11 17:31:54;;;;;;;51.10;14.57;;;;;;;;;;10584833;27;20043;-74
2024/01/11 17:36:57;;;;;;;61.60;17.90;;;;;;;;;;10587413;27;20045;-72
2024/01/11 17:42:01;;;;;;;62.23;17.30;;;;;;;;;;10583876;27;20051;-71
2024/01/11 17:47:04;;;;;;;;;;;;;;;;;;10584037;27;20055;-74
2024/01/11 17:52:07;;;;;;;57.60;17.30;;;;;;;;;;10584175;27;20457;-73
2024/01/11 17:57:11;;;;;;;41.23;12.63;;;;;;;;;;10583575;27;20158;-72
2024/01/11 18:02:13;;;;;;;;;;;;;;;;;;10579231;27;20111;-75
2024/01/11 18:07:16;;;;;;;42.83;12.53;;;;;;;;;;10576165;27;19934;-72
2024/01/11 18:12:21;;;;;;;8.53;4.53;;;;;;;;;;10577458;27;20335;-71
2024/01/11 18:17:23;;;;;;;43.57;12.47;;;;;;;;;;10576740;27;20202;-71
2024/01/11 18:22:27;;;;;;;42.27;12.33;;;;;;;;;;10579137;27;20412;-74
2024/01/11 18:27:34;;;;;;;35.97;9.80;;;;;;;;;;10576376;27;20042;-73
2024/01/11 18:32:37;;;;;;;;;;;;;;;;;;10576641;27;20046;-74
2024/01/11 18:37:40;;;;;;;33.17;10.40;;;;;;;;;;10603507;27;19999;-74
2024/01/11 18:42:44;;;;;;;48.55;15.05;;;;;;;;;;10597823;27;20341;-74
2024/01/11 18:47:47;;;;;;;42.55;13.88;;;;;;;;;;10588794;27;20067;-74
2024/01/11 18:52:49;;;;;;;48.97;13.73;;;;;;;;;;10599818;27;20043;-74
2024/01/11 18:57:54;;;;;;;52.57;13.63;;;;;;;;;;10599911;27;20043;-74
2024/01/11 19:02:58;;;;;;;27.53;8.77;;;;;;;;;;10595898;27;20193;-74
2024/01/11 19:08:00;;;;;;;47.10;12.43;;;;;;;;;;10600847;27;20049;-74
2024/01/11 19:13:04;;;;;;;40.47;12.77;;;;;;;;;;10595225;27;20092;-73
2024/01/11 19:18:08;;;;;;;43.70;12.75;;;;;;;;;;10598209;27;20122;-74
2024/01/11 19:23:12;;;;;;;52.50;15.30;;;;;;;;;;10598809;27;20500;-74
2024/01/11 19:28:16;;;;;;;48.10;14.00;;;;;;;;;;10601887;27;20048;-73
2024/01/11 19:33:19;;;;;;;51.05;15.20;;;;;;;;;;10602055;27;20096;-73
2024/01/11 19:38:23;;;;;;;66.10;15.68;;;;;;;;;;10608575;27;20455;-74
2024/01/11 19:43:27;;;;;;;40.47;11.53;;;;;;;;;;10607926;27;20043;-73
2024/01/11 19:48:30;;;;;;;22.55;7.63;;;;;;;;;;10607074;27;20039;-74
2024/01/11 19:53:32;;;;;;;31.97;9.73;;;;;;;;;;10608494;27;20081;-73
2024/01/11 19:58:37;;;;;;;28.60;9.60;;;;;;;;;;10591006;27;20074;-73
2024/01/11 20:03:40;;;;;;;46.33;13.43;;;;;;;;;;10603667;27;20035;-73
2024/01/11 20:08:43;;;;;;;22.87;7.37;;;;;;;;;;10604746;27;20042;-74
2024/01/11 20:13:47;;;;;;;22.33;6.83;;;;;;;;;;10604433;27;20138;-73
2024/01/11 20:18:50;;;;;;;6.97;2.40;;;;;;;;;;10597926;27;20055;-72
2024/01/11 20:23:53;;;;;;;38.63;11.23;;;;;;;;;;10602196;27;20042;-74
2024/01/11 20:28:58;;;;;;;32.83;9.43;;;;;;;;;;10603423;27;20500;-75
2024/01/11 20:34:01;;;;;;;10.23;3.90;;;;;;;;;;10605259;27;20376;-74
2024/01/11 20:39:05;;;;;;;36.40;9.77;;;;;;;;;;10603376;27;20043;-72
2024/01/11 20:44:09;;;;;;;35.27;9.07;;;;;;;;;;10606045;27;20043;-73
2024/01/11 20:49:12;;;;;;;19.33;5.73;;;;;;;;;;10600075;27;20478;-74
2024/01/11 20:54:16;;;;;;;21.47;5.07;;;;;;;;;;10596257;27;20135;-74
2024/01/11 20:59:20;;;;;;;9.70;4.03;;;;;;;;;;10602922;27;20047;-73
2024/01/11 21:04:23;;;;;;;32.00;10.68;;;;;;;;;;10605629;27;20071;-73
2024/01/11 21:09:25;;;;;;;40.53;11.37;;;;;;;;;;10604402;27;20100;-73
2024/01/11 21:14:30;;;;;;;33.87;11.07;;;;;;;;;;10602109;27;20049;-73
2024/01/11 21:19:32;;;;;;;;;;;;;;;;;;10601372;27;20461;-74
2024/01/11 21:24:36;;;;;;;32.57;8.87;;;;;;;;;;10599008;27;20022;-74
2024/01/11 21:29:40;;;;;;;52.00;12.70;;;;;;;;;;10602090;27;20043;-72
2024/01/11 21:34:42;;;;;;;26.50;7.50;;;;;;;;;;10597501;27;20495;-73
2024/01/11 21:39:45;;;;;;;37.43;10.93;;;;;;;;;;10604420;27;20046;-73
2024/01/11 21:44:50;;;;;;;44.97;11.80;;;;;;;;;;10602193;27;20088;-72
2024/01/11 21:49:53;;;;;;;47.10;10.17;;;;;;;;;;10603908;27;20119;-72
2024/01/11 21:54:56;;;;;;;39.57;11.90;;;;;;;;;;10584105;27;20035;-72
2024/01/11 22:00:00;;;;;;;35.63;11.07;;;;;;;;;;10601616;27;20046;-73
2024/01/11 22:05:04;;;;;;;42.80;12.63;;;;;;;;;;10591027;27;20042;-73
2024/01/11 22:10:08;;;;;;;36.17;11.63;;;;;;;;;;10597352;27;20131;-73
2024/01/11 22:15:12;;;;;;;34.42;9.90;;;;;;;;;;10582479;27;20135;-73
2024/01/11 22:20:14;;;;;;;;;;;;;;;;;;10586318;27;20519;-73
2024/01/11 22:25:17;;;;;;;29.50;9.30;;;;;;;;;;10592689;27;19923;-73
2024/01/11 22:30:21;;;;;;;25.07;7.57;;;;;;;;;;10579141;27;20050;-73
2024/01/11 22:35:24;;;;;;;25.45;6.93;;;;;;;;;;10586199;27;20047;-75
2024/01/11 22:40:27;;;;;;;17.27;5.23;;;;;;;;;;10588555;27;20078;-74
2024/01/11 22:45:33;;;;;;;10.57;4.37;;;;;;;;;;10582140;27;20135;-74
2024/01/11 22:50:36;;;;;;;28.43;8.37;;;;;;;;;;10588334;27;20047;-74
2024/01/11 22:55:39;;;;;;;25.63;6.37;;;;;;;;;;10589195;27;20326;-74
2024/01/11 23:00:49;;;;;;;21.13;5.93;;;;;;;;;;10585345;27;20038;-72
2024/01/11 23:05:55;;;;;;;26.90;9.27;;;;;;;;;;10591720;27;20480;-73
2024/01/11 23:10:57;;;;;;;29.43;8.03;;;;;;;;;;10598259;27;20047;-74
2024/01/11 23:16:01;;;;;;;13.37;5.90;;;;;;;;;;10575741;27;20039;-73
2024/01/11 23:21:05;;;;;;;7.20;3.47;;;;;;;;;;10592585;27;20044;-73
2024/01/11 23:26:10;;;;;;;24.03;6.63;;;;;;;;;;10595463;27;20039;-73
2024/01/11 23:31:14;;;;;;;23.10;7.50;;;;;;;;;;10596752;27;20044;-72
2024/01/11 23:36:16;;;;;;;11.40;5.88;;;;;;;;;;10593463;27;20051;-74
2024/01/11 23:41:20;;;;;;;14.97;4.93;;;;;;;;;;10567235;27;20484;-73
2024/01/11 23:46:25;;;;;;;22.37;7.43;;;;;;;;;;10592403;27;20031;-74
2024/01/11 23:51:29;;;;;;;7.40;4.13;;;;;;;;;;10586772;27;20138;-74
2024/01/11 23:56:32;;;;;;;17.10;3.00;;;;;;;;;;10596282;27;20400;-74
